Aviation Digital Data Service (ADDS)

Output produced by METARs form (0204 UTC 30 May 2015)
found at http://aviationweather.gov/adds/metars/
 
KCDW 300153Z AUTO 14003KT 10SM CLR 20/13 A3025 RMK AO2 SLP246 T02000133 TSNO
KMMU 300145Z 00000KT 10SM BKN250 21/15 A3024
KFWN 300153Z AUTO 20008KT 10SM CLR 22/13 A3024 RMK AO2 SLP238 T02170128
KTEB 300151Z 21007KT 10SM CLR 20/14 A3023 RMK AO2 SLP236 T02000144
KTEB 292340Z 3000/3024 17006KT P6SM FEW050 SCT250 
     FM300100 17003KT P6SM FEW250 
     FM300900 VRB03KT 1SM BR SCT005 BKN010 
     FM301300 21007KT P6SM SCT015 
     FM301700 19012G19KT P6SM SCT040
       
KEWR 300151Z 15005KT 10SM BKN250 21/16 A3024 RMK AO2 SLP239 T02110156
KEWR 292340Z 3000/3106 15007KT P6SM FEW050 SCT250 
     FM300100 17005KT P6SM FEW250 
     FM300900 18005KT 2SM BR SCT005 BKN010 
     FM301300 19010KT P6SM SCT015 
     FM301700 19012G19KT P6SM SCT040 
     FM310500 19011KT P6SM BKN040
       
KDXR 300153Z 00000KT 10SM CLR 19/13 A3026 RMK AO2 SLP243 T01890133
KHPN 300156Z 00000KT 10SM CLR 18/14 A3024 RMK AO2 SLP237 T01830144
KHPN 292342Z 3000/3024 14005KT P6SM SCT250 
     FM300800 VRB02KT 2SM BR SCT005 BKN010 
     FM301200 18006KT P6SM SCT015 
     FM301700 18010G17KT P6SM SCT040 AMD NOT SKED
       
KABE 300151Z 15009KT 10SM SCT042 26/17 A3020 RMK AO2 SLP225 T02560167
KABE 292320Z 3000/3024 18006KT P6SM SCT300 
     FM300800 17003KT 6SM BR SCT015 
     FM301000 VRB02KT 3SM BR BKN010 
     FM301300 20006KT P6SM BKN025 
     FM301500 20011G19KT P6SM SCT045
       
KAVP 300154Z AUTO 16004KT 10SM CLR 23/15 A3020 RMK AO2 SLP218 T02280150 $
KAVP 292341Z 3000/3024 19005KT P6SM SCT200 
     FM300800 19005KT P6SM SCT015 BKN090 
     TEMPO 3008/3012 4SM BR 
     FM301400 22010KT P6SM SCT035 BKN080 
     FM301800 21009G16KT 6SM -SHRA BKN080 
     PROB30 3018/3022 P6SM TS BKN050CB
       
KSWF 292345Z VRB05KT 20SM BKN100 24/16 A3022
KSWF 292340Z 3000/3106 VRB04KT P6SM SCT100 SCT250 
     FM300700 VRB03KT 3SM BR SCT015 
     FM301300 23009KT 6SM HZ FEW015 SCT040 
     FM301700 21013G19KT P6SM BKN040 AMD NOT SKED
       
KMSV 300155Z AUTO 00000KT 10SM CLR 19/13 A3026 RMK AO1
KPOU 300153Z 15003KT 10SM CLR 22/14 A3021 RMK AO2 SLP226 T02220139
KPOU 292322Z 3000/3024 18004KT P6SM BKN250 
     FM300800 VRB02KT 5SM BR BKN040 
     FM301500 20009KT P6SM BKN100 
     FM302200 20010KT P6SM BKN045
       
KACY 300154Z 16005KT 10SM CLR 19/17 A3025 RMK AO2 SLP242 T01940172
KACY 292320Z 3000/3024 14007KT P6SM SCT300 
     FM300400 15005KT 6SM BR SCT010 
     FM300600 17004KT 3SM BR BKN006 
     FM301300 19008KT P6SM BKN015 
     FM301400 18012G20KT P6SM FEW050
       
KGON 300156Z 00000KT 10SM CLR 16/14 A3025 RMK AO2 SLP244 T01560139
KGON 292340Z 3000/3024 18005KT P6SM FEW005 SCT250 
     FM300300 19003KT 3SM BR SCT005 BKN010 
     FM300400 19003KT 1SM BR BKN005 BKN010 
     TEMPO 3006/3010 1/2SM FG 
     FM301300 21008KT P6SM BKN015 
     FM301700 21011KT P6SM SCT020